createdAt,value
2018-07-19T00:06:18.894Z,99.90
2018-07-19T00:08:49.447Z,99.90
2018-07-19T00:11:19.958Z,99.90
2018-07-19T00:13:50.835Z,99.90
2018-07-19T00:16:22.541Z,99.90
2018-07-19T00:18:53.524Z,99.90
2018-07-19T00:21:23.932Z,99.90
2018-07-19T00:23:54.393Z,99.90
2018-07-19T00:26:25.649Z,99.90
2018-07-19T00:28:56.215Z,99.90
2018-07-19T00:31:26.750Z,99.90
2018-07-19T00:33:57.888Z,99.90
2018-07-19T00:36:29.336Z,99.90
2018-07-19T00:38:59.976Z,99.90
2018-07-19T00:41:30.552Z,99.90
2018-07-19T00:44:01.112Z,99.90
2018-07-19T00:46:31.718Z,99.90
2018-07-19T00:49:02.324Z,99.90
2018-07-19T00:51:32.933Z,99.90
2018-07-19T00:54:04.672Z,99.90
2018-07-19T00:56:35.589Z,99.90
2018-07-19T00:59:06.242Z,99.90
2018-07-19T01:01:36.690Z,99.90
2018-07-19T01:04:07.610Z,99.90
2018-07-19T01:06:38.160Z,99.90
2018-07-19T01:09:11.730Z,99.90
2018-07-19T01:11:43.066Z,99.90
2018-07-19T01:14:13.668Z,99.90
2018-07-19T01:16:44.554Z,99.90
2018-07-19T01:19:15.157Z,99.90
2018-07-19T01:21:45.702Z,99.90
2018-07-19T01:24:16.269Z,99.90
2018-07-19T01:26:46.878Z,99.90
2018-07-19T01:31:48.407Z,99.90
2018-07-19T01:34:18.973Z,99.90
2018-07-19T01:36:49.725Z,99.90
2018-07-19T01:39:20.352Z,99.90
2018-07-19T01:42:33.340Z,99.90
2018-07-19T01:45:05.164Z,99.90
2018-07-19T01:47:36.515Z,99.90
2018-07-19T01:50:08.812Z,99.90
2018-07-19T01:52:39.662Z,99.90
2018-07-19T01:55:10.356Z,99.90
2018-07-19T01:57:40.891Z,99.90
2018-07-19T02:00:11.603Z,99.90
2018-07-19T02:02:42.272Z,99.90
2018-07-19T02:05:13.727Z,99.90
2018-07-19T02:07:44.761Z,99.90
2018-07-19T02:10:15.568Z,99.90
2018-07-19T02:12:45.987Z,99.90
2018-07-19T02:15:16.521Z,99.90
2018-07-19T02:17:47.198Z,99.90
2018-07-19T02:20:17.750Z,99.90
2018-07-19T02:22:48.342Z,99.90
2018-07-19T02:25:18.962Z,99.90
2018-07-19T02:27:50.071Z,99.90
2018-07-19T02:30:20.533Z,99.90
2018-07-19T02:32:51.050Z,99.90
2018-07-19T02:35:21.500Z,99.90
2018-07-19T02:37:52.202Z,99.90
2018-07-19T02:40:22.974Z,99.90
2018-07-19T02:42:53.489Z,99.90
2018-07-19T02:45:24.006Z,99.90
2018-07-19T02:47:54.603Z,99.90
2018-07-19T02:50:25.603Z,99.90
2018-07-19T02:52:56.921Z,99.90
2018-07-19T02:55:27.381Z,99.90
2018-07-19T02:57:57.795Z,99.90
2018-07-19T03:00:28.373Z,99.90
2018-07-19T03:02:59.029Z,99.90
2018-07-19T03:05:29.721Z,99.90
2018-07-19T03:08:00.042Z,99.90
2018-07-19T03:10:30.527Z,99.90
2018-07-19T03:15:32.810Z,99.90
2018-07-19T03:18:03.306Z,99.90
2018-07-19T03:20:34.002Z,99.90
2018-07-19T03:23:04.623Z,99.90
2018-07-19T03:25:35.318Z,99.90
2018-07-19T03:28:05.836Z,99.90
2018-07-19T03:30:37.017Z,99.90
2018-07-19T03:33:08.576Z,99.90
2018-07-19T03:35:39.132Z,99.90
2018-07-19T03:38:09.647Z,99.90
2018-07-19T03:40:40.161Z,99.90
2018-07-19T03:43:11.468Z,99.90
2018-07-19T03:45:41.950Z,99.90
2018-07-19T03:48:12.576Z,99.90
2018-07-19T03:50:44.028Z,99.90
2018-07-19T03:53:15.213Z,99.90
2018-07-19T03:55:45.882Z,99.90
2018-07-19T03:58:16.563Z,99.90
2018-07-19T04:00:47.328Z,99.90
2018-07-19T04:03:17.915Z,99.90
2018-07-19T04:05:48.422Z,99.90
2018-07-19T04:08:19.467Z,99.90
2018-07-19T04:10:50.713Z,99.90
2018-07-19T04:13:21.678Z,99.90
2018-07-19T04:15:52.208Z,99.90
2018-07-19T04:18:22.826Z,99.90
2018-07-19T04:23:23.311Z,99.90
2018-07-19T04:25:53.882Z,99.90
2018-07-19T04:28:24.436Z,99.90
2018-07-19T04:30:56.055Z,99.90
2018-07-19T04:33:26.802Z,99.90
2018-07-19T04:35:57.365Z,99.90
2018-07-19T04:38:27.973Z,99.90
2018-07-19T04:40:58.518Z,99.90
2018-07-19T04:43:29.319Z,99.90
2018-07-19T04:45:59.866Z,99.90
2018-07-19T04:48:30.632Z,99.90
2018-07-19T04:51:02.418Z,99.90
2018-07-19T04:53:33.053Z,99.90
2018-07-19T04:56:03.465Z,99.90
2018-07-19T04:58:34.223Z,99.90
2018-07-19T05:01:04.928Z,99.90
2018-07-19T05:03:35.633Z,99.90
2018-07-19T05:06:06.304Z,99.90
2018-07-19T05:08:37.744Z,99.90
2018-07-19T05:11:08.809Z,99.90
2018-07-19T05:16:09.903Z,99.90
2018-07-19T05:18:40.737Z,99.90
2018-07-19T05:21:11.434Z,99.90
2018-07-19T05:23:42.066Z,99.90
2018-07-19T05:26:13.585Z,99.90
2018-07-19T05:28:46.200Z,99.90
2018-07-19T05:31:16.944Z,99.90
2018-07-19T05:33:48.503Z,99.90
2018-07-19T05:36:19.278Z,99.90
2018-07-19T05:38:50.940Z,99.90
2018-07-19T05:41:21.473Z,99.90
2018-07-19T05:43:52.384Z,99.90
2018-07-19T05:46:24.748Z,99.90
2018-07-19T05:48:55.305Z,99.90
2018-07-19T05:51:26.331Z,99.90
2018-07-19T05:53:56.915Z,99.90
2018-07-19T05:56:27.670Z,99.90
2018-07-19T05:58:58.327Z,99.90
2018-07-19T06:01:28.880Z,99.90
2018-07-19T06:04:00.868Z,99.90
2018-07-19T06:06:32.285Z,99.90
2018-07-19T06:11:33.256Z,99.90
2018-07-19T06:14:06.105Z,99.90
2018-07-19T06:16:36.853Z,99.90
2018-07-19T06:19:08.031Z,99.90
2018-07-19T06:21:40.076Z,99.90
2018-07-19T06:24:11.480Z,99.90
2018-07-19T06:26:42.566Z,99.90
2018-07-19T06:29:13.652Z,99.90
2018-07-19T06:31:44.587Z,99.90
2018-07-19T06:34:16.053Z,99.90
2018-07-19T06:36:46.925Z,99.90
2018-07-19T06:39:18.734Z,99.90
2018-07-19T06:41:50.089Z,99.90
2018-07-19T06:46:51.690Z,99.90
2018-07-19T06:49:22.746Z,99.90
2018-07-19T06:51:54.031Z,99.90
2018-07-19T06:54:24.986Z,99.90
2018-07-19T06:57:01.317Z,99.90
2018-07-19T06:59:34.591Z,99.90
2018-07-19T07:02:06.937Z,99.90
2018-07-19T07:04:38.392Z,99.90
2018-07-19T07:07:09.707Z,99.90
2018-07-19T07:09:43.753Z,99.90
2018-07-19T07:14:53.084Z,99.90
2018-07-19T07:17:24.055Z,99.90
2018-07-19T07:19:58.587Z,99.90
2018-07-19T07:22:29.901Z,99.90
2018-07-19T07:25:01.832Z,99.90
2018-07-19T07:27:34.061Z,99.90
2018-07-19T07:30:06.112Z,99.90
2018-07-19T07:32:36.968Z,99.90
2018-07-19T07:35:09.263Z,99.90
2018-07-19T07:37:40.631Z,99.90
2018-07-19T07:42:44.042Z,99.90
2018-07-19T07:45:16.012Z,99.90
2018-07-19T07:47:47.837Z,99.90
2018-07-19T07:50:19.322Z,99.90
2018-07-19T07:55:20.791Z,99.90
2018-07-19T07:57:52.511Z,99.90
2018-07-19T08:00:24.639Z,99.90
2018-07-19T08:02:56.464Z,99.90
2018-07-19T08:05:27.576Z,99.90
2018-07-19T08:07:58.523Z,99.90
2018-07-19T08:10:29.691Z,99.90
2018-07-19T08:13:00.521Z,99.90
2018-07-19T08:15:31.765Z,99.90
2018-07-19T08:18:03.645Z,98.70
2018-07-19T08:20:35.828Z,97.20
2018-07-19T08:23:08.080Z,97.00
2018-07-19T08:25:39.529Z,95.40
2018-07-19T08:28:10.580Z,95.70
2018-07-19T08:30:43.696Z,95.60
2018-07-19T08:33:14.754Z,95.10
2018-07-19T08:35:48.211Z,94.10
2018-07-19T08:38:19.183Z,92.90
2018-07-19T08:40:51.810Z,91.00
2018-07-19T08:43:23.819Z,88.20
2018-07-19T08:45:55.149Z,84.30
2018-07-19T08:48:26.507Z,79.90
2018-07-19T08:50:58.579Z,80.40
2018-07-19T08:53:30.851Z,77.20
2018-07-19T08:58:31.577Z,72.20
2018-07-19T09:01:02.489Z,70.50
2018-07-19T09:03:33.983Z,69.00
2018-07-19T09:06:06.028Z,67.90
2018-07-19T09:08:45.456Z,66.30
2018-07-19T09:11:18.748Z,64.80
2018-07-19T09:13:52.603Z,63.80
2018-07-19T09:16:23.860Z,63.90
2018-07-19T09:18:55.132Z,64.20
2018-07-19T09:21:31.082Z,64.40
2018-07-19T09:24:04.559Z,64.80
2018-07-19T09:26:36.229Z,64.00
2018-07-19T09:29:09.547Z,63.50
2018-07-19T09:31:40.940Z,58.30
2018-07-19T09:34:12.210Z,56.60
2018-07-19T09:36:44.047Z,56.70
2018-07-19T09:39:15.641Z,54.60
2018-07-19T09:41:48.870Z,49.60
2018-07-19T09:44:20.122Z,49.90
2018-07-19T09:46:53.159Z,49.80
2018-07-19T09:49:24.625Z,50.30
2018-07-19T09:51:57.100Z,50.30
2018-07-19T09:54:44.460Z,48.80
2018-07-19T09:57:15.959Z,48.20
2018-07-19T09:59:47.768Z,47.60
2018-07-19T10:02:20.493Z,48.20
2018-07-19T10:04:52.585Z,48.70
2018-07-19T10:07:26.576Z,47.50
2018-07-19T10:09:58.891Z,48.00
2018-07-19T10:12:33.562Z,48.10
2018-07-19T10:15:07.032Z,49.40
2018-07-19T10:17:40.109Z,48.70
2018-07-19T10:20:13.332Z,47.30
2018-07-19T10:22:46.102Z,46.70
2018-07-19T10:25:19.652Z,47.60
2018-07-19T10:27:51.085Z,46.60
2018-07-19T10:32:55.562Z,46.70
2018-07-19T10:35:26.780Z,46.80
2018-07-19T10:37:57.906Z,44.90
2018-07-19T10:40:30.081Z,43.60
2018-07-19T10:43:01.501Z,44.80
2018-07-19T10:45:33.402Z,44.30
2018-07-19T10:48:09.768Z,44.10
2018-07-19T10:50:40.995Z,45.40
2018-07-19T10:55:42.435Z,42.90
2018-07-19T10:58:59.376Z,43.90
2018-07-19T11:01:33.397Z,44.60
2018-07-19T11:06:36.352Z,47.60
2018-07-19T11:09:11.344Z,46.70
2018-07-19T11:11:43.664Z,45.90
2018-07-19T11:14:15.971Z,45.00
2018-07-19T11:16:48.530Z,44.10
2018-07-19T11:19:19.790Z,44.10
2018-07-19T11:24:25.523Z,41.60
2018-07-19T11:26:56.527Z,41.50
2018-07-19T11:29:27.856Z,40.90
2018-07-19T11:31:59.600Z,40.50
2018-07-19T11:34:31.237Z,38.10
2018-07-19T11:37:04.249Z,37.30
2018-07-19T11:39:34.960Z,41.40
2018-07-19T11:42:05.926Z,41.00
2018-07-19T11:44:37.692Z,40.60
2018-07-19T11:47:12.186Z,39.60
2018-07-19T11:49:44.623Z,41.20
2018-07-19T11:54:49.096Z,40.10
2018-07-19T11:57:24.396Z,40.60
2018-07-19T11:59:56.384Z,39.20
2018-07-19T12:02:29.177Z,38.60
2018-07-19T12:05:00.975Z,38.40
2018-07-19T12:07:32.603Z,40.30
2018-07-19T12:10:04.742Z,40.80
2018-07-19T12:12:35.831Z,40.40
2018-07-19T12:15:07.042Z,39.40
2018-07-19T12:17:37.877Z,38.80
2018-07-19T12:20:10.153Z,40.40
2018-07-19T12:22:41.765Z,42.70
2018-07-19T12:25:12.828Z,41.90
2018-07-19T12:27:43.574Z,45.30
2018-07-19T12:30:15.661Z,44.80
2018-07-19T12:32:47.337Z,44.80
2018-07-19T12:35:20.553Z,47.00
2018-07-19T12:37:53.005Z,46.50
2018-07-19T12:40:27.283Z,46.70
2018-07-19T12:42:58.427Z,44.20
2018-07-19T12:45:31.749Z,41.90
2018-07-19T12:48:03.133Z,40.80
2018-07-19T12:53:08.731Z,40.50
2018-07-19T12:55:40.330Z,41.60
2018-07-19T12:58:11.623Z,44.20
2018-07-19T13:00:42.813Z,42.70
2018-07-19T13:03:13.922Z,42.20
2018-07-19T13:05:44.999Z,41.70
2018-07-19T13:08:16.273Z,42.60
2018-07-19T13:10:49.062Z,39.80
2018-07-19T13:13:21.702Z,40.90
2018-07-19T13:15:53.594Z,41.50
2018-07-19T13:18:24.387Z,41.20
2018-07-19T13:20:57.019Z,41.80
2018-07-19T13:23:29.584Z,45.00
2018-07-19T13:26:04.008Z,42.00
2018-07-19T13:28:36.258Z,43.30
2018-07-19T13:31:12.600Z,43.50
2018-07-19T13:33:43.838Z,42.30
2018-07-19T13:36:14.881Z,41.80
2018-07-19T13:38:47.209Z,40.80
2018-07-19T13:41:18.720Z,40.80
2018-07-19T13:49:22.966Z,44.00
2018-07-19T13:51:53.895Z,44.90
2018-07-19T13:54:43.342Z,42.90
2018-07-19T13:57:14.526Z,42.40
2018-07-19T13:59:45.957Z,43.60
2018-07-19T14:04:47.895Z,45.30
2018-07-19T14:07:18.610Z,44.60
2018-07-19T14:09:49.642Z,44.00
2018-07-19T14:12:21.050Z,44.70
2018-07-19T14:14:51.666Z,45.00
2018-07-19T14:17:22.319Z,45.50
2018-07-19T14:19:53.154Z,46.20
2018-07-19T14:22:23.642Z,49.20
2018-07-19T14:24:54.191Z,49.50
2018-07-19T14:27:24.805Z,50.80
2018-07-19T14:29:55.950Z,50.60
2018-07-19T14:32:28.138Z,51.90
2018-07-19T14:34:59.173Z,52.40
2018-07-19T14:37:29.909Z,53.70
2018-07-19T14:40:00.598Z,54.00
2018-07-19T14:42:31.117Z,54.00
2018-07-19T14:45:01.796Z,55.80
2018-07-19T14:47:32.642Z,56.30
2018-07-19T14:50:04.585Z,56.80
2018-07-19T14:52:35.352Z,56.90
2018-07-19T14:55:06.799Z,58.70
2018-07-19T14:57:37.551Z,58.80
2018-07-19T15:00:09.088Z,59.50
2018-07-19T15:02:40.198Z,61.00
2018-07-19T15:05:11.436Z,61.50
2018-07-19T15:07:44.018Z,63.80
2018-07-19T15:10:14.955Z,61.80
2018-07-19T15:12:45.762Z,59.30
2018-07-19T15:15:16.620Z,57.40
2018-07-19T15:17:47.472Z,57.10
2018-07-19T15:20:18.067Z,57.30
2018-07-19T15:22:49.067Z,57.80
2018-07-19T15:25:22.033Z,57.60
2018-07-19T15:27:54.017Z,61.10
2018-07-19T15:30:25.775Z,63.20
2018-07-19T15:32:56.541Z,66.00
2018-07-19T15:35:28.364Z,63.50
2018-07-19T15:37:59.125Z,62.50
2018-07-19T15:40:31.170Z,60.50
2018-07-19T15:43:04.245Z,57.50
2018-07-19T15:45:37.619Z,58.50
2018-07-19T15:48:09.558Z,59.20
2018-07-19T15:50:41.036Z,57.50
2018-07-19T15:53:12.215Z,58.70
2018-07-19T15:55:43.050Z,59.10
2018-07-19T15:58:14.544Z,59.90
2018-07-19T16:00:46.557Z,62.10
2018-07-19T16:03:17.252Z,63.50
2018-07-19T16:05:47.774Z,64.60
2018-07-19T16:08:18.993Z,65.60
2018-07-19T16:10:50.041Z,65.50
2018-07-19T16:13:20.797Z,65.30
2018-07-19T16:15:51.617Z,65.70
2018-07-19T16:20:53.631Z,65.70
2018-07-19T16:23:24.401Z,65.50
2018-07-19T16:28:25.577Z,65.80
2018-07-19T16:30:56.379Z,66.20
2018-07-19T16:33:26.993Z,66.70
2018-07-19T16:35:58.931Z,68.50
2018-07-19T16:38:34.435Z,67.00
2018-07-19T16:41:05.772Z,66.60
2018-07-19T16:43:37.705Z,68.70
2018-07-19T16:46:08.805Z,67.20
2018-07-19T16:48:39.361Z,68.50
2018-07-19T16:51:10.395Z,70.00
2018-07-19T16:53:43.120Z,71.80
2018-07-19T16:56:13.731Z,70.10
2018-07-19T16:58:44.405Z,71.00
2018-07-19T17:01:15.422Z,71.30
2018-07-19T17:06:16.684Z,67.60
2018-07-19T17:08:47.266Z,67.20
2018-07-19T17:11:18.349Z,66.90
2018-07-19T17:13:51.381Z,68.50
2018-07-19T17:16:22.977Z,68.60
2018-07-19T17:18:53.657Z,67.90
2018-07-19T17:21:24.528Z,66.00
2018-07-19T17:23:55.102Z,69.10
2018-07-19T17:26:25.800Z,67.60
2018-07-19T17:28:56.533Z,68.10
2018-07-19T17:31:28.346Z,67.20
2018-07-19T17:33:59.198Z,67.00
2018-07-19T17:39:00.373Z,66.10
2018-07-19T17:41:32.237Z,65.70
2018-07-19T17:44:03.065Z,67.40
2018-07-19T17:46:34.377Z,68.20
2018-07-19T17:49:07.076Z,68.60
2018-07-19T17:51:39.408Z,68.50
2018-07-19T17:54:10.433Z,68.40
2018-07-19T17:56:41.541Z,68.40
2018-07-19T17:59:12.885Z,66.80
2018-07-19T18:01:43.927Z,67.80
2018-07-19T18:04:15.655Z,67.20
2018-07-19T18:06:47.578Z,69.00
2018-07-19T18:09:18.960Z,74.20
2018-07-19T18:11:49.823Z,74.00
2018-07-19T18:16:52.261Z,76.60
2018-07-19T18:19:23.863Z,76.80
2018-07-19T18:21:54.755Z,77.80
2018-07-19T18:24:26.267Z,76.20
2018-07-19T18:26:58.632Z,71.50
2018-07-19T18:29:30.217Z,71.90
2018-07-19T18:34:31.267Z,71.00
2018-07-19T18:37:02.210Z,72.70
2018-07-19T18:39:33.588Z,74.50
2018-07-19T18:42:05.316Z,76.80
2018-07-19T18:44:38.346Z,79.00
2018-07-19T18:47:09.839Z,81.70
2018-07-19T18:49:42.628Z,82.90
2018-07-19T18:52:14.307Z,84.10
2018-07-19T18:54:45.882Z,85.10
2018-07-19T18:57:17.952Z,85.60
2018-07-19T18:59:52.580Z,85.60
2018-07-19T19:02:24.306Z,86.30
2018-07-19T19:04:56.272Z,87.10
2018-07-19T19:07:29.076Z,87.80
2018-07-19T19:10:00.703Z,88.10
2018-07-19T19:12:32.431Z,88.50
2018-07-19T19:15:05.335Z,89.40
2018-07-19T19:17:39.353Z,88.90
2018-07-19T19:20:11.929Z,90.20
2018-07-19T19:22:44.108Z,90.80
2018-07-19T19:25:17.108Z,91.10
2018-07-19T19:27:49.416Z,91.80
2018-07-19T19:30:26.006Z,90.20
2018-07-19T19:32:57.563Z,91.50
2018-07-19T19:35:30.860Z,92.20
2018-07-19T19:38:07.931Z,92.70
2018-07-19T19:40:41.167Z,93.40
2018-07-19T19:43:13.975Z,94.20
2018-07-19T19:45:48.082Z,95.20
2018-07-19T19:48:20.845Z,96.20
2018-07-19T19:50:53.613Z,97.30
2018-07-19T19:53:28.405Z,98.30
2018-07-19T19:56:01.401Z,99.00
2018-07-19T19:58:33.709Z,99.60
2018-07-19T20:01:05.526Z,99.50
2018-07-19T20:03:37.959Z,99.80
2018-07-19T20:06:11.712Z,99.70
2018-07-19T20:08:45.494Z,99.90
2018-07-19T20:11:19.214Z,99.90
2018-07-19T20:13:52.685Z,99.90
2018-07-19T20:16:24.578Z,99.90
2018-07-19T20:18:56.307Z,99.90
2018-07-19T20:21:27.927Z,99.90
2018-07-19T20:24:00.956Z,99.90
2018-07-19T20:26:33.418Z,99.90
2018-07-19T20:29:04.786Z,99.90
2018-07-19T20:31:36.852Z,99.90
2018-07-19T20:34:09.727Z,99.90
2018-07-19T20:36:41.473Z,99.90
2018-07-19T20:39:13.659Z,99.90
2018-07-19T20:41:46.807Z,99.90
2018-07-19T20:44:19.095Z,99.90
2018-07-19T20:46:51.154Z,99.90
2018-07-19T20:49:22.842Z,99.90
2018-07-19T20:51:55.087Z,99.90
2018-07-19T20:54:27.842Z,99.90
2018-07-19T20:57:00.165Z,99.90
2018-07-19T20:59:31.239Z,99.90
2018-07-19T21:02:03.410Z,99.90
2018-07-19T21:04:36.112Z,99.90
2018-07-19T21:07:07.004Z,99.90
2018-07-19T21:09:38.384Z,99.90
2018-07-19T21:12:13.658Z,99.90
2018-07-19T21:14:47.475Z,99.90
2018-07-19T21:17:19.134Z,99.90
2018-07-19T21:19:50.317Z,99.90
2018-07-19T21:22:21.274Z,99.90
2018-07-19T21:24:52.495Z,99.90
2018-07-19T21:27:24.790Z,99.90
2018-07-19T21:29:55.701Z,99.90
2018-07-19T21:32:26.401Z,99.90
2018-07-19T21:34:57.235Z,99.90
2018-07-19T21:37:28.186Z,99.90
2018-07-19T21:39:58.917Z,99.90
2018-07-19T21:42:29.811Z,99.90
2018-07-19T21:45:02.398Z,99.90
2018-07-19T21:47:34.740Z,99.90
2018-07-19T21:50:05.881Z,99.90
2018-07-19T21:52:44.944Z,99.90
2018-07-19T21:55:16.020Z,99.90
2018-07-19T21:57:47.052Z,99.90
2018-07-19T22:00:19.648Z,99.90
2018-07-19T22:02:50.840Z,99.90
2018-07-19T22:05:21.938Z,99.90
2018-07-19T22:07:52.689Z,99.90
2018-07-19T22:10:25.356Z,99.90
2018-07-19T22:12:57.035Z,99.90
2018-07-19T22:15:28.470Z,99.90
2018-07-19T22:18:00.740Z,99.90
2018-07-19T22:20:31.564Z,99.90
2018-07-19T22:23:02.717Z,99.90
2018-07-19T22:25:34.208Z,99.90
2018-07-19T22:28:05.544Z,99.90
2018-07-19T22:30:36.438Z,99.90
2018-07-19T22:35:38.780Z,99.90
2018-07-19T22:38:11.510Z,99.90
2018-07-19T22:40:42.212Z,99.90
2018-07-19T22:43:13.309Z,99.90
2018-07-19T22:45:44.059Z,99.90
2018-07-19T22:48:15.164Z,99.90
2018-07-19T22:50:46.097Z,99.90
2018-07-19T22:53:17.435Z,99.90
2018-07-19T22:58:19.349Z,99.90
2018-07-19T23:00:50.193Z,99.90
2018-07-19T23:03:21.213Z,99.90
2018-07-19T23:05:52.164Z,99.90
2018-07-19T23:08:23.115Z,99.90
2018-07-19T23:10:53.978Z,99.90
2018-07-19T23:13:25.584Z,99.90
2018-07-19T23:18:28.022Z,99.90
2018-07-19T23:20:58.790Z,99.90
2018-07-19T23:23:29.497Z,99.90
2018-07-19T23:26:00.617Z,99.90
2018-07-19T23:28:31.583Z,99.90
2018-07-19T23:31:02.313Z,99.90
2018-07-19T23:33:34.265Z,99.90
2018-07-19T23:38:42.496Z,99.90
2018-07-19T23:41:20.222Z,99.90
2018-07-19T23:43:55.153Z,99.90
2018-07-19T23:46:31.633Z,99.90
2018-07-19T23:49:08.256Z,99.90
2018-07-19T23:51:39.701Z,99.90
2018-07-19T23:54:10.589Z,99.90
2018-07-19T23:56:41.919Z,99.90
2018-07-19T23:59:13.682Z,99.90
